Time;durP1;ratioP1;P1;durP2;ratioP2;P2;SDS_P1;SDS_P2;PMS_P1;PMS_P2;Temp;Humidity;BMP_temperature;BMP_pressure;BME280_temperature;BME280_humidity;BME280_pressure;Samples;Min_cycle;Max_cycle;Signal;HPM_P1;HPM_P2
2023/07/31 00:00:30;;;;;;;7.57;5.00;;;17.90;99.90;;;;;;4912233;29;20216;-87
2023/07/31 00:02:56;;;;;;;8.68;4.55;;;17.80;99.90;;;;;;4912525;29;20187;-88
2023/07/31 00:05:22;;;;;;;6.93;4.20;;;17.80;99.90;;;;;;4912746;29;20648;-87
2023/07/31 00:07:47;;;;;;;6.40;4.35;;;17.80;99.90;;;;;;4869151;29;1287405;-88
2023/07/31 00:10:13;;;;;;;7.05;5.03;;;17.80;99.90;;;;;;4913500;29;20270;-86
2023/07/31 00:12:42;;;;;;;6.22;4.85;;;17.80;99.90;;;;;;4913215;29;20233;-86
2023/07/31 00:15:08;;;;;;;7.97;4.53;;;17.80;99.90;;;;;;4913276;29;20192;-87
2023/07/31 00:17:34;;;;;;;6.35;4.63;;;17.80;99.90;;;;;;4910881;29;20208;-87
2023/07/31 00:20:00;;;;;;;5.90;4.50;;;17.80;99.90;;;;;;4911626;29;20692;-88
2023/07/31 00:22:26;;;;;;;8.63;4.70;;;17.80;99.90;;;;;;4896741;29;20188;-87
2023/07/31 00:24:51;;;;;;;5.47;4.13;;;17.80;99.90;;;;;;4896809;29;20622;-88
2023/07/31 00:27:17;;;;;;;6.20;4.35;;;17.70;99.90;;;;;;4909525;29;20256;-88
2023/07/31 00:29:43;;;;;;;6.30;3.83;;;17.70;99.90;;;;;;4911282;29;20199;-87
2023/07/31 00:32:15;;;;;;;5.72;3.78;;;17.70;99.90;;;;;;4911071;29;20196;-88
2023/07/31 00:34:41;;;;;;;4.97;3.88;;;17.60;99.90;;;;;;4913660;29;20203;-87
2023/07/31 00:37:07;;;;;;;5.95;3.13;;;17.60;99.90;;;;;;4913565;29;20196;-87
2023/07/31 00:39:35;;;;;;;5.72;3.40;;;17.60;99.90;;;;;;4930654;29;20208;-88
2023/07/31 00:42:01;;;;;;;4.55;3.53;;;17.50;99.90;;;;;;4914375;29;20188;-88
2023/07/31 00:44:27;;;;;;;3.55;3.10;;;17.50;99.90;;;;;;4914826;29;20246;-86
2023/07/31 00:46:54;;;;;;;4.68;3.25;;;17.40;99.90;;;;;;4916190;29;20188;-87
2023/07/31 00:49:21;;;;;;;4.43;3.50;;;17.40;99.90;;;;;;4915831;29;20184;-87
2023/07/31 00:51:47;;;;;;;4.10;3.17;;;17.40;99.90;;;;;;4900598;29;20209;-88
2023/07/31 00:54:13;;;;;;;4.35;3.20;;;17.40;99.90;;;;;;4917480;29;20189;-88
2023/07/31 00:56:40;;;;;;;5.50;2.97;;;17.30;99.90;;;;;;4917717;29;20194;-88
2023/07/31 00:59:06;;;;;;;5.85;3.17;;;17.30;99.90;;;;;;4916742;29;20694;-87
2023/07/31 01:01:32;;;;;;;5.00;3.30;;;17.30;99.90;;;;;;4916094;29;20251;-87
2023/07/31 01:03:58;;;;;;;5.00;3.55;;;17.30;99.90;;;;;;4915719;29;21007;-87
2023/07/31 01:06:35;;;;;;;3.58;2.75;;;17.30;99.90;;;;;;4915274;29;20230;-87
2023/07/31 01:09:07;;;;;;;4.07;2.97;;;17.30;99.90;;;;;;4909063;29;20195;-86
2023/07/31 01:11:46;;;;;;;3.97;3.10;;;17.30;99.90;;;;;;4913422;29;20192;-87
2023/07/31 01:14:12;;;;;;;6.20;3.25;;;17.20;99.90;;;;;;4930595;29;20191;-87
2023/07/31 01:16:38;;;;;;;4.57;3.10;;;17.20;99.90;;;;;;4891500;29;20184;-87
2023/07/31 01:19:06;;;;;;;3.72;2.80;;;17.20;99.90;;;;;;4912552;29;20217;-87
2023/07/31 01:21:59;;;;;;;3.88;2.85;;;17.20;99.90;;;;;;4914685;29;20203;-87
2023/07/31 01:24:30;;;;;;;4.93;2.60;;;17.20;99.90;;;;;;4910474;29;20212;-87
2023/07/31 01:27:06;;;;;;;5.43;2.50;;;17.20;99.90;;;;;;4915122;29;20203;-87
2023/07/31 01:29:40;;;;;;;5.78;2.35;;;17.20;99.90;;;;;;4899853;29;20184;-87
2023/07/31 01:32:07;;;;;;;3.08;2.33;;;17.20;99.90;;;;;;4915875;29;20640;-86
2023/07/31 01:34:39;;;;;;;3.10;2.38;;;17.20;99.90;;;;;;4897870;29;20195;-86
2023/07/31 01:37:05;;;;;;;3.90;3.20;;;17.20;99.90;;;;;;4912414;29;20417;-87
2023/07/31 01:39:31;;;;;;;4.63;3.00;;;17.20;99.90;;;;;;4902313;29;20223;-87
2023/07/31 01:41:57;;;;;;;4.18;2.90;;;17.20;99.90;;;;;;4912228;29;20207;-87
2023/07/31 01:44:22;;;;;;;3.63;3.00;;;17.20;99.90;;;;;;4915208;29;20301;-87
2023/07/31 01:46:48;;;;;;;3.50;3.10;;;17.20;99.90;;;;;;4909538;29;20270;-87
2023/07/31 01:49:14;;;;;;;3.92;3.15;;;17.20;99.90;;;;;;4911974;29;20195;-87
2023/07/31 01:51:40;;;;;;;3.58;3.05;;;17.20;99.90;;;;;;4917707;29;20203;-88
2023/07/31 01:54:07;;;;;;;4.68;3.10;;;17.20;99.90;;;;;;4917414;29;20184;-88
2023/07/31 01:56:33;;;;;;;4.00;3.00;;;17.20;99.90;;;;;;4917335;29;20573;-87
2023/07/31 01:58:58;;;;;;;5.20;3.22;;;17.20;99.90;;;;;;4926754;29;20228;-87
2023/07/31 02:01:24;;;;;;;5.00;3.20;;;17.20;99.90;;;;;;4913539;29;20192;-87
2023/07/31 02:03:54;;;;;;;3.83;3.00;;;17.20;99.90;;;;;;4918859;29;20188;-87
2023/07/31 02:06:22;;;;;;;3.63;2.80;;;17.20;99.90;;;;;;4912674;29;20334;-87
2023/07/31 02:08:49;;;;;;;3.58;2.72;;;17.10;99.90;;;;;;4916393;29;20275;-87
2023/07/31 02:11:14;;;;;;;2.65;2.45;;;17.10;99.90;;;;;;4914894;29;20277;-88
2023/07/31 02:13:40;;;;;;;2.50;2.30;;;17.10;99.90;;;;;;4931350;29;20633;-88
2023/07/31 02:16:06;;;;;;;2.28;2.00;;;17.10;99.90;;;;;;4912089;29;20231;-86
2023/07/31 02:18:32;;;;;;;3.10;2.20;;;17.10;99.90;;;;;;4899900;29;20188;-86
2023/07/31 02:20:58;;;;;;;2.97;2.20;;;17.10;99.90;;;;;;4916666;29;20191;-85
2023/07/31 02:23:25;;;;;;;8.90;2.10;;;17.20;99.90;;;;;;4915287;29;20208;-86
2023/07/31 02:25:51;;;;;;;2.25;1.70;;;17.10;99.90;;;;;;4916599;29;20219;-85
2023/07/31 02:28:16;;;;;;;1.92;1.70;;;17.10;99.90;;;;;;4917419;29;20332;-86
2023/07/31 02:30:46;;;;;;;2.33;1.80;;;17.10;99.90;;;;;;4897604;29;20275;-83
2023/07/31 02:33:11;;;;;;;2.10;1.75;;;17.10;99.90;;;;;;4912865;29;20587;-83
2023/07/31 02:35:37;;;;;;;3.65;2.00;;;17.10;99.90;;;;;;4917145;29;20227;-84
2023/07/31 02:38:03;;;;;;;1.98;1.60;;;17.10;99.90;;;;;;4931959;29;20199;-85
2023/07/31 02:40:29;;;;;;;2.25;1.70;;;17.10;99.90;;;;;;4913149;29;20777;-83
2023/07/31 02:42:54;;;;;;;2.40;1.70;;;17.10;99.90;;;;;;4912920;29;20196;-84
2023/07/31 02:45:20;;;;;;;2.28;1.83;;;17.10;99.90;;;;;;4919791;29;20187;-84
2023/07/31 02:47:46;;;;;;;2.35;1.55;;;17.10;99.90;;;;;;4928478;29;20494;-84
2023/07/31 02:50:12;;;;;;;2.33;1.63;;;17.20;99.90;;;;;;4915976;29;20232;-83
2023/07/31 02:52:37;;;;;;;2.85;1.42;;;17.10;99.90;;;;;;4932312;29;20289;-84
2023/07/31 02:55:04;;;;;;;3.42;1.80;;;17.20;99.90;;;;;;4915626;29;22033;-83
2023/07/31 02:57:29;;;;;;;5.53;1.67;;;17.10;99.90;;;;;;4931130;29;20644;-84
2023/07/31 02:59:55;;;;;;;1.70;1.35;;;17.10;99.90;;;;;;4915041;29;20263;-84
2023/07/31 03:02:21;;;;;;;2.28;1.25;;;17.10;99.90;;;;;;4895463;29;20223;-84
2023/07/31 03:04:48;;;;;;;2.15;1.70;;;17.10;99.90;;;;;;4915035;29;20180;-84
2023/07/31 03:07:14;;;;;;;1.98;1.25;;;17.10;99.90;;;;;;4915267;29;20243;-83
2023/07/31 03:09:40;;;;;;;3.22;1.50;;;17.10;99.90;;;;;;4915603;29;20664;-84
2023/07/31 03:12:06;;;;;;;2.25;1.50;;;17.10;99.90;;;;;;4909225;29;20242;-84
2023/07/31 03:14:32;;;;;;;1.63;1.35;;;17.10;99.90;;;;;;4914910;29;20238;-83
2023/07/31 03:16:59;;;;;;;2.03;1.60;;;17.10;99.90;;;;;;4914364;29;20199;-85
2023/07/31 03:19:25;;;;;;;1.83;1.65;;;17.10;99.90;;;;;;4917085;29;20215;-85
2023/07/31 03:21:51;;;;;;;2.55;1.60;;;17.10;99.90;;;;;;4910566;29;20184;-85
2023/07/31 03:24:17;;;;;;;2.88;2.00;;;17.10;99.90;;;;;;4915765;29;20625;-83
2023/07/31 03:26:43;;;;;;;1.40;1.30;;;17.10;99.90;;;;;;4915091;29;20187;-84
2023/07/31 03:29:09;;;;;;;2.60;1.45;;;17.00;99.90;;;;;;4912514;29;20214;-85
2023/07/31 03:31:34;;;;;;;2.33;1.40;;;17.00;99.90;;;;;;4910142;29;20229;-85
2023/07/31 03:34:00;;;;;;;3.72;1.50;;;17.00;99.90;;;;;;4909440;29;20221;-85
2023/07/31 03:36:26;;;;;;;2.03;1.50;;;17.00;99.90;;;;;;4911974;29;20190;-83
2023/07/31 03:38:53;;;;;;;2.13;1.27;;;17.00;99.90;;;;;;4913893;29;20560;-84
2023/07/31 03:41:19;;;;;;;3.33;1.50;;;17.00;99.90;;;;;;4899440;29;20353;-84
2023/07/31 03:43:49;;;;;;;2.13;1.30;;;17.00;99.90;;;;;;4916588;29;20218;-83
2023/07/31 03:46:15;;;;;;;3.25;1.60;;;17.00;99.90;;;;;;4914994;29;20184;-83
2023/07/31 03:48:41;;;;;;;2.40;1.48;;;17.00;99.90;;;;;;4922245;29;20244;-85
2023/07/31 03:51:06;;;;;;;4.65;1.55;;;17.00;99.90;;;;;;4905722;29;20192;-86
2023/07/31 03:53:32;;;;;;;3.35;1.40;;;17.00;99.90;;;;;;4915481;29;20196;-86
2023/07/31 03:55:58;;;;;;;3.60;1.40;;;17.00;99.90;;;;;;4914414;29;20266;-85
2023/07/31 03:58:24;;;;;;;2.10;1.30;;;17.00;99.90;;;;;;4915419;29;20191;-85
2023/07/31 04:00:49;;;;;;;5.07;1.77;;;17.00;99.90;;;;;;4926523;29;20192;-85
2023/07/31 04:03:18;;;;;;;2.75;1.55;;;17.00;99.90;;;;;;4910233;29;20188;-84
2023/07/31 04:05:44;;;;;;;2.08;1.60;;;17.00;99.90;;;;;;4930070;29;20187;-84
2023/07/31 04:08:10;;;;;;;1.95;1.50;;;17.00;99.90;;;;;;4925054;29;20230;-84
2023/07/31 04:10:36;;;;;;;2.30;1.50;;;17.00;99.90;;;;;;4921188;29;20548;-84
2023/07/31 04:13:01;;;;;;;3.20;1.48;;;17.00;99.90;;;;;;4913097;29;20247;-85
2023/07/31 04:15:27;;;;;;;2.47;1.50;;;17.00;99.90;;;;;;4912794;29;20287;-84
2023/07/31 04:17:53;;;;;;;2.80;1.48;;;17.00;99.90;;;;;;4912224;29;20243;-84
2023/07/31 04:20:19;;;;;;;3.05;1.27;;;17.00;99.90;;;;;;4922303;29;20234;-84
2023/07/31 04:22:44;;;;;;;2.28;1.40;;;17.00;99.90;;;;;;4913505;29;20203;-84
2023/07/31 04:25:10;;;;;;;2.40;1.30;;;17.00;99.90;;;;;;4903526;29;21133;-84
2023/07/31 04:27:36;;;;;;;1.98;1.40;;;17.00;99.90;;;;;;4911570;29;20858;-84
2023/07/31 04:30:03;;;;;;;2.15;1.40;;;17.00;99.90;;;;;;4910204;29;20229;-83
2023/07/31 04:32:29;;;;;;;8.02;1.52;;;17.00;99.90;;;;;;4923732;29;20188;-83
2023/07/31 04:34:55;;;;;;;1.85;1.48;;;17.00;99.90;;;;;;4921262;29;20675;-84
2023/07/31 04:37:21;;;;;;;3.42;1.30;;;17.00;99.90;;;;;;4915783;29;20202;-87
2023/07/31 04:39:47;;;;;;;3.13;1.25;;;17.00;99.90;;;;;;4916297;29;20763;-89
2023/07/31 04:42:12;;;;;;;2.63;1.23;;;17.00;99.90;;;;;;4910618;29;20188;-89
2023/07/31 04:44:38;;;;;;;1.55;1.25;;;17.00;99.90;;;;;;4913177;29;20192;-85
2023/07/31 04:47:04;;;;;;;2.50;1.10;;;16.90;99.90;;;;;;4908252;29;20538;-87
2023/07/31 04:49:30;;;;;;;1.50;1.00;;;17.00;99.90;;;;;;4917894;29;20188;-86
2023/07/31 04:51:56;;;;;;;1.60;1.25;;;16.90;99.90;;;;;;4897019;29;20197;-87
2023/07/31 04:54:21;;;;;;;2.05;1.20;;;17.00;99.90;;;;;;4915532;29;20216;-86
2023/07/31 04:56:47;;;;;;;1.90;1.13;;;16.90;99.90;;;;;;4910162;29;20544;-86
2023/07/31 04:59:13;;;;;;;1.88;1.10;;;17.00;99.90;;;;;;4937255;29;20212;-87
2023/07/31 05:01:39;;;;;;;0.98;0.95;;;16.90;99.90;;;;;;4914845;29;20192;-87
2023/07/31 05:04:05;;;;;;;2.72;1.02;;;16.90;99.90;;;;;;4910269;29;20193;-86
2023/07/31 05:06:30;;;;;;;1.27;1.10;;;16.90;99.90;;;;;;4904476;29;20319;-88
2023/07/31 05:08:56;;;;;;;2.13;1.38;;;16.90;99.90;;;;;;4913332;29;20228;-90
2023/07/31 05:11:22;;;;;;;1.17;1.08;;;16.90;99.90;;;;;;4915319;29;20196;-82
2023/07/31 05:13:48;;;;;;;3.22;1.20;;;16.90;99.90;;;;;;4895396;29;20569;-84
2023/07/31 05:16:14;;;;;;;1.98;1.20;;;16.90;99.90;;;;;;4894209;29;20191;-85
2023/07/31 05:18:39;;;;;;;1.65;1.20;;;16.90;99.90;;;;;;4914708;29;20589;-85
2023/07/31 05:21:05;;;;;;;1.98;1.30;;;16.90;99.90;;;;;;4932402;29;20536;-85
2023/07/31 05:23:32;;;;;;;1.90;1.10;;;16.90;99.90;;;;;;4901366;29;20192;-85
2023/07/31 05:26:09;;;;;;;2.60;0.88;;;16.90;99.90;;;;;;4917436;29;20563;-84
2023/07/31 05:28:36;;;;;;;1.45;0.80;;;16.90;99.90;;;;;;4912338;29;20638;-85
2023/07/31 05:31:03;;;;;;;0.80;0.70;;;16.90;99.90;;;;;;4907031;29;20195;-85
2023/07/31 05:33:29;;;;;;;0.80;0.80;;;17.00;99.90;;;;;;4914613;29;20638;-85
2023/07/31 05:35:55;;;;;;;1.27;0.70;;;16.90;99.90;;;;;;4918391;29;20251;-85
2023/07/31 05:38:21;;;;;;;1.25;0.85;;;17.00;99.90;;;;;;4915415;29;20187;-84
2023/07/31 05:40:47;;;;;;;0.90;0.80;;;17.00;99.90;;;;;;4911989;29;20694;-85
2023/07/31 05:43:14;;;;;;;1.55;0.90;;;17.00;99.90;;;;;;4916006;29;20551;-86
2023/07/31 05:45:40;;;;;;;2.63;1.10;;;17.10;99.90;;;;;;4926524;29;20645;-87
2023/07/31 05:48:06;;;;;;;1.27;0.88;;;17.10;99.90;;;;;;4917990;29;20188;-87
2023/07/31 05:50:32;;;;;;;2.08;1.00;;;17.10;99.90;;;;;;4917310;29;20285;-87
2023/07/31 05:52:57;;;;;;;1.90;1.10;;;17.10;99.90;;;;;;4918145;29;20223;-86
2023/07/31 05:55:26;;;;;;;2.72;1.20;;;17.10;99.90;;;;;;4914235;29;20185;-86
2023/07/31 05:57:53;;;;;;;1.90;1.20;;;17.10;99.90;;;;;;4908690;29;20184;-87
2023/07/31 06:00:19;;;;;;;1.50;1.15;;;17.10;99.90;;;;;;4910802;29;20220;-88
2023/07/31 06:02:53;;;;;;;2.83;1.30;;;17.10;99.90;;;;;;4933173;29;20195;-87
2023/07/31 06:05:20;;;;;;;4.53;1.33;;;17.10;99.90;;;;;;4933970;29;20287;-88
2023/07/31 06:07:46;;;;;;;1.30;1.20;;;17.20;99.90;;;;;;4913550;29;20240;-88
2023/07/31 06:10:13;;;;;;;1.75;1.40;;;17.20;99.90;;;;;;4911458;29;20247;-85
2023/07/31 06:12:39;;;;;;;1.83;1.52;;;17.20;99.90;;;;;;4914476;29;20251;-86
2023/07/31 06:15:05;;;;;;;3.20;1.90;;;17.20;99.90;;;;;;4914102;29;20284;-88
2023/07/31 06:17:31;;;;;;;2.83;1.92;;;17.20;99.90;;;;;;4910388;29;20188;-86
2023/07/31 06:19:57;;;;;;;3.40;1.80;;;17.20;99.90;;;;;;4912721;29;20271;-87
2023/07/31 06:22:23;;;;;;;4.40;2.15;;;17.30;99.90;;;;;;4912327;29;20203;-86
2023/07/31 06:24:49;;;;;;;4.65;2.22;;;17.30;99.90;;;;;;4912435;29;20189;-86
2023/07/31 06:27:14;;;;;;;5.43;2.03;;;17.30;99.90;;;;;;4895437;29;20195;-85
2023/07/31 06:29:41;;;;;;;5.70;2.80;;;17.30;99.90;;;;;;4900908;29;20282;-87
2023/07/31 06:32:07;;;;;;;5.30;2.95;;;17.30;99.90;;;;;;4904212;29;20184;-85
2023/07/31 06:34:33;;;;;;;6.70;3.50;;;17.30;99.90;;;;;;4910925;29;20196;-85
2023/07/31 06:36:58;;;;;;;8.43;3.83;;;17.30;99.90;;;;;;4914730;29;20192;-85
2023/07/31 06:39:30;;;;;;;12.90;4.18;;;17.30;99.90;;;;;;4915537;29;20217;-87
2023/07/31 06:41:56;;;;;;;13.80;4.43;;;17.40;99.90;;;;;;4899925;29;20200;-87
2023/07/31 06:44:22;;;;;;;14.35;5.03;;;17.40;99.90;;;;;;4934091;29;20188;-84
2023/07/31 06:46:48;;;;;;;19.52;5.00;;;17.40;99.90;;;;;;4916656;29;20187;-87
2023/07/31 06:49:15;;;;;;;14.70;5.00;;;17.40;99.90;;;;;;4930673;29;20563;-86
2023/07/31 06:51:44;;;;;;;16.23;5.85;;;17.50;99.90;;;;;;4902227;29;20196;-87
2023/07/31 06:54:09;;;;;;;19.35;5.97;;;17.50;99.90;;;;;;4914239;29;20193;-91
2023/07/31 06:56:35;;;;;;;19.77;6.45;;;17.50;99.90;;;;;;4914455;29;20194;-87
2023/07/31 06:59:01;;;;;;;23.50;6.95;;;17.60;99.90;;;;;;4915270;29;20214;-86
2023/07/31 07:01:28;;;;;;;22.00;6.60;;;17.60;99.90;;;;;;4900605;29;20243;-88
2023/07/31 07:03:54;;;;;;;17.23;6.78;;;17.70;99.90;;;;;;4922789;29;20283;-86
2023/07/31 07:06:22;;;;;;;26.33;7.03;;;17.70;99.90;;;;;;4938181;29;20271;-88
2023/07/31 07:08:48;;;;;;;22.92;7.20;;;17.80;99.90;;;;;;4914093;29;20657;-87
2023/07/31 07:11:14;;;;;;;29.20;7.80;;;17.80;99.90;;;;;;4909702;29;20199;-87
2023/07/31 07:13:40;;;;;;;18.98;6.70;;;17.80;99.90;;;;;;4919896;29;20187;-88
2023/07/31 07:16:06;;;;;;;27.10;7.22;;;17.90;99.90;;;;;;4924660;29;20191;-87
2023/07/31 07:18:32;;;;;;;24.45;7.03;;;17.90;99.90;;;;;;4916345;29;20184;-86
2023/07/31 07:20:58;;;;;;;19.38;6.65;;;18.00;99.90;;;;;;4900615;29;20547;-88
2023/07/31 07:23:24;;;;;;;24.67;6.75;;;18.00;99.90;;;;;;4915757;29;20185;-88
2023/07/31 07:25:51;;;;;;;25.05;7.97;;;18.00;99.90;;;;;;4915647;29;20184;-89
2023/07/31 07:28:17;;;;;;;20.70;7.00;;;18.00;99.90;;;;;;4916759;29;21622;-87
2023/07/31 07:30:43;;;;;;;21.13;6.65;;;18.00;99.90;;;;;;4911697;29;20196;-88
2023/07/31 07:33:08;;;;;;;21.02;6.68;;;18.00;99.90;;;;;;4915598;29;20290;-88
2023/07/31 07:35:35;;;;;;;24.08;7.63;;;18.00;99.90;;;;;;4913075;29;20192;-88
2023/07/31 07:38:03;;;;;;;19.70;7.28;;;18.00;99.90;;;;;;4915699;29;20180;-87
2023/07/31 07:40:31;;;;;;;23.35;7.70;;;18.00;99.90;;;;;;4911381;29;20582;-87
2023/07/31 07:42:57;;;;;;;27.30;8.27;;;18.00;99.90;;;;;;4915677;29;20715;-87
2023/07/31 07:45:23;;;;;;;20.08;7.85;;;18.10;99.90;;;;;;4900280;29;20184;-88
2023/07/31 07:47:49;;;;;;;22.20;7.97;;;18.10;99.90;;;;;;4915612;29;20586;-86
2023/07/31 07:50:15;;;;;;;19.00;7.57;;;18.10;99.90;;;;;;4915227;29;20219;-87
2023/07/31 07:52:41;;;;;;;20.80;7.45;;;18.00;99.90;;;;;;4900172;29;20637;-88
2023/07/31 07:55:10;;;;;;;17.25;6.35;;;18.00;99.90;;;;;;4902063;29;20191;-94
2023/07/31 07:57:50;;;;;;;;;;;;;;;;;;;;;
2023/07/31 08:00:21;;;;;;;7.60;3.65;;;18.00;99.90;;;;;;5144959;23;20235;-93
2023/07/31 08:02:58;;;;;;;9.77;4.03;;;18.00;99.90;;;;;;5002566;23;21092;-90
2023/07/31 08:08:47;;;;;;;4.32;2.00;;;18.00;99.90;;;;;;4932179;29;20219;-94
2023/07/31 08:14:33;;;;;;;3.05;1.60;;;18.00;99.90;;;;;;4962300;23;20279;-94
2023/07/31 08:17:00;;;;;;;3.35;1.73;;;17.90;99.90;;;;;;4954114;29;20197;-92
2023/07/31 08:19:25;;;;;;;4.38;1.88;;;18.00;99.90;;;;;;4954867;29;20215;-91
2023/07/31 08:21:51;;;;;;;4.40;2.00;;;17.90;99.90;;;;;;4956107;29;20187;-92
2023/07/31 08:24:18;;;;;;;3.58;1.73;;;18.00;99.90;;;;;;4942773;29;20199;-93
2023/07/31 08:26:44;;;;;;;2.83;1.75;;;18.00;99.90;;;;;;4930921;29;20179;-90
2023/07/31 08:29:12;;;;;;;5.47;1.90;;;18.00;99.90;;;;;;4926077;29;20187;-88
2023/07/31 08:31:38;;;;;;;2.22;1.52;;;18.00;99.90;;;;;;4935180;28;20629;-94
2023/07/31 08:34:04;;;;;;;4.35;2.03;;;18.10;99.90;;;;;;4943566;29;20281;-88
2023/07/31 08:36:30;;;;;;;4.10;1.70;;;18.10;99.90;;;;;;4931952;29;20573;-91
2023/07/31 08:39:07;;;;;;;2.95;1.77;;;18.10;99.90;;;;;;4916435;29;20252;-92
2023/07/31 08:41:39;;;;;;;2.28;1.50;;;18.10;99.90;;;;;;4955445;28;20173;-93
2023/07/31 08:44:07;;;;;;;2.83;1.60;;;18.10;99.90;;;;;;4926375;29;20188;-92
2023/07/31 08:46:34;;;;;;;2.17;1.63;;;18.20;99.90;;;;;;4932851;29;20183;-90
2023/07/31 08:49:02;;;;;;;3.47;1.77;;;18.20;99.90;;;;;;4916404;29;20207;-90
2023/07/31 08:51:33;;;;;;;2.00;1.40;;;18.20;99.90;;;;;;4933364;29;20195;-88
2023/07/31 08:53:59;;;;;;;2.63;1.55;;;18.20;99.90;;;;;;4931997;29;20188;-87
2023/07/31 08:56:29;;;;;;;4.60;1.70;;;18.30;99.90;;;;;;4914366;29;20192;-86
2023/07/31 08:58:55;;;;;;;2.35;1.67;;;18.30;99.90;;;;;;4918687;29;20578;-87
2023/07/31 09:01:23;;;;;;;4.47;1.80;;;18.30;99.90;;;;;;4939332;29;20275;-91
2023/07/31 09:03:51;;;;;;;1.92;1.30;;;18.40;99.90;;;;;;4934661;29;20623;-89
2023/07/31 09:06:18;;;;;;;1.83;1.50;;;18.40;99.90;;;;;;4931803;29;20238;-91
2023/07/31 09:08:44;;;;;;;2.00;1.40;;;18.40;99.90;;;;;;4939804;29;20175;-91
2023/07/31 09:11:10;;;;;;;15.18;1.70;;;18.40;99.90;;;;;;4921655;29;20549;-89
2023/07/31 09:13:39;;;;;;;9.43;1.80;;;18.40;99.90;;;;;;4927115;29;20319;-90
2023/07/31 09:16:05;;;;;;;27.30;2.17;;;18.40;99.90;;;;;;4918584;29;20781;-89
2023/07/31 09:18:31;;;;;;;1.73;1.30;;;18.40;99.90;;;;;;4921107;29;20708;-92
2023/07/31 09:21:04;;;;;;;1.92;1.35;;;18.50;99.90;;;;;;4899080;29;20278;-90
2023/07/31 09:23:43;;;;;;;1.20;1.10;;;18.40;99.90;;;;;;4935204;29;20396;-90
2023/07/31 09:26:31;;;;;;;54.65;3.05;;;18.40;99.90;;;;;;4922765;29;20183;-92
2023/07/31 09:29:01;;;;;;;7.53;1.60;;;18.50;99.90;;;;;;4942355;29;20267;-91
2023/07/31 09:31:42;;;;;;;2.53;1.20;;;18.50;99.90;;;;;;4939123;29;20246;-92
2023/07/31 09:34:08;;;;;;;3.65;1.20;;;18.50;99.90;;;;;;4925732;29;20202;-92
2023/07/31 09:36:44;;;;;;;1.80;1.17;;;18.50;99.90;;;;;;4915091;29;20259;-91
2023/07/31 09:39:15;;;;;;;2.17;1.40;;;18.50;99.90;;;;;;4935169;29;20218;-92
2023/07/31 09:41:44;;;;;;;4.10;1.23;;;18.50;99.90;;;;;;4939208;29;20175;-90
2023/07/31 09:44:19;;;;;;;2.55;1.10;;;18.50;99.90;;;;;;4929950;29;20179;-89
2023/07/31 09:46:46;;;;;;;2.53;1.20;;;18.50;99.90;;;;;;4935480;29;20190;-89
2023/07/31 09:49:13;;;;;;;1.58;1.17;;;18.50;99.90;;;;;;4933580;29;20653;-91
2023/07/31 09:51:42;;;;;;;2.30;1.35;;;18.50;99.90;;;;;;4935628;29;20247;-92
2023/07/31 09:54:13;;;;;;;3.20;1.17;;;18.50;99.90;;;;;;4920501;29;20188;-90
2023/07/31 09:56:48;;;;;;;2.90;1.23;;;18.50;99.90;;;;;;4936150;29;20182;-91
2023/07/31 09:59:16;;;;;;;1.23;1.08;;;18.50;99.90;;;;;;4932463;29;20728;-89
2023/07/31 10:01:43;;;;;;;1.65;1.00;;;18.50;99.90;;;;;;4915764;29;20226;-90
2023/07/31 10:04:13;;;;;;;1.10;0.90;;;18.50;99.90;;;;;;4927988;29;20192;-89
2023/07/31 10:06:42;;;;;;;1.60;0.70;;;18.50;99.90;;;;;;4927762;29;20180;-89
2023/07/31 10:09:11;;;;;;;20.85;1.55;;;18.50;99.90;;;;;;4917372;29;20240;-91
2023/07/31 10:11:45;;;;;;;0.55;0.55;;;18.60;99.90;;;;;;4930452;29;20180;-90
2023/07/31 10:14:13;;;;;;;1.33;0.70;;;18.60;99.90;;;;;;4931003;29;20230;-89
2023/07/31 10:16:40;;;;;;;1.05;0.65;;;18.60;99.90;;;;;;4914215;29;20644;-89
2023/07/31 10:19:08;;;;;;;1.67;0.60;;;18.60;99.90;;;;;;4915381;29;20223;-89
2023/07/31 10:21:35;;;;;;;0.50;0.50;;;18.60;99.90;;;;;;4937245;29;20187;-89
2023/07/31 10:24:04;;;;;;;3.30;0.70;;;18.70;99.90;;;;;;4921975;29;20337;-90
2023/07/31 10:26:33;;;;;;;0.40;0.40;;;18.70;99.90;;;;;;4936384;29;20190;-89
2023/07/31 10:29:00;;;;;;;1.13;0.50;;;18.70;99.90;;;;;;4917152;29;20211;-92
2023/07/31 10:31:31;;;;;;;1.35;0.47;;;18.70;99.90;;;;;;4933752;29;20202;-88
2023/07/31 10:33:59;;;;;;;0.40;0.30;;;18.70;99.90;;;;;;4938541;29;20258;-89
2023/07/31 10:36:25;;;;;;;0.75;0.50;;;18.70;99.90;;;;;;4906575;29;20242;-90
2023/07/31 10:38:51;;;;;;;1.70;0.70;;;18.70;99.90;;;;;;4932841;29;20207;-89
2023/07/31 10:41:17;;;;;;;0.65;0.60;;;18.70;99.90;;;;;;4932705;29;20539;-89
2023/07/31 10:43:46;;;;;;;0.50;0.50;;;18.80;99.90;;;;;;4919955;29;20184;-90
2023/07/31 10:46:13;;;;;;;0.98;0.60;;;18.80;99.90;;;;;;4955097;29;20179;-89
2023/07/31 10:48:43;;;;;;;0.63;0.60;;;18.80;99.90;;;;;;4904529;29;20258;-89
2023/07/31 10:51:11;;;;;;;1.10;0.65;;;18.80;99.90;;;;;;4934062;29;20183;-89
2023/07/31 10:53:39;;;;;;;3.40;1.00;;;18.90;99.90;;;;;;4927407;29;20179;-89
2023/07/31 10:56:12;;;;;;;1.27;0.75;;;18.90;99.90;;;;;;4919644;29;20212;-90
2023/07/31 10:58:38;;;;;;;2.05;0.55;;;18.90;99.90;;;;;;4937557;29;20188;-89
2023/07/31 11:01:05;;;;;;;0.80;0.68;;;19.00;99.90;;;;;;4937567;29;20200;-89
2023/07/31 11:03:47;;;;;;;0.75;0.70;;;19.00;99.90;;;;;;4934745;29;20242;-91
2023/07/31 11:06:14;;;;;;;2.17;1.00;;;19.00;99.90;;;;;;4934464;29;20226;-92
2023/07/31 11:08:46;;;;;;;1.58;1.25;;;19.00;99.90;;;;;;4922519;29;20191;-89
2023/07/31 11:11:18;;;;;;;2.60;0.80;;;19.00;99.90;;;;;;4919893;29;20592;-88
2023/07/31 11:13:50;;;;;;;1.98;1.00;;;19.10;99.90;;;;;;4933235;29;20223;-87
2023/07/31 11:16:18;;;;;;;1.27;1.00;;;19.10;99.90;;;;;;4937500;29;20274;-89
2023/07/31 11:18:45;;;;;;;3.85;1.20;;;19.10;99.90;;;;;;4918022;29;20629;-88
2023/07/31 11:21:16;;;;;;;1.42;1.27;;;19.20;99.90;;;;;;4921796;29;20183;-90
2023/07/31 11:23:52;;;;;;;2.33;1.30;;;19.30;99.90;;;;;;4927590;29;20179;-89
2023/07/31 11:26:19;;;;;;;2.90;1.27;;;19.30;99.90;;;;;;4938266;29;20210;-88
2023/07/31 11:28:49;;;;;;;2.67;1.40;;;19.40;99.90;;;;;;4931726;29;20183;-87
2023/07/31 11:31:15;;;;;;;1.85;1.30;;;19.40;99.90;;;;;;4940041;29;20187;-89
2023/07/31 11:33:40;;;;;;;2.42;1.10;;;19.40;99.90;;;;;;4926153;29;20440;-88
2023/07/31 11:36:15;;;;;;;1.65;1.00;;;19.40;99.90;;;;;;4903585;29;20183;-89
2023/07/31 11:38:41;;;;;;;2.45;1.08;;;19.40;99.90;;;;;;4932374;29;20255;-89
2023/07/31 11:41:07;;;;;;;1.63;1.05;;;19.40;99.90;;;;;;4936042;29;20518;-89
2023/07/31 11:43:33;;;;;;;2.25;1.15;;;19.40;99.90;;;;;;4941423;29;20703;-88
2023/07/31 11:46:04;;;;;;;1.55;1.20;;;19.40;99.90;;;;;;4921623;29;20269;-91
2023/07/31 11:48:37;;;;;;;5.00;1.50;;;19.40;99.90;;;;;;4924314;29;20690;-89
2023/07/31 11:51:07;;;;;;;4.07;1.30;;;19.40;99.90;;;;;;4937203;29;20191;-91
2023/07/31 11:53:51;;;;;;;2.03;1.10;;;19.30;99.90;;;;;;4928270;29;20212;-89
2023/07/31 11:56:19;;;;;;;2.85;1.02;;;19.30;99.90;;;;;;4927373;29;20639;-89
2023/07/31 11:58:49;;;;;;;2.75;1.25;;;19.30;99.90;;;;;;4933441;29;20191;-88
2023/07/31 12:01:19;;;;;;;2.13;1.25;;;19.30;99.90;;;;;;4921475;29;20263;-88
2023/07/31 12:03:46;;;;;;;2.28;1.30;;;19.30;99.90;;;;;;4941956;29;20180;-90
2023/07/31 12:06:12;;;;;;;1.75;1.10;;;19.30;99.90;;;;;;4949649;29;20194;-89
2023/07/31 12:08:38;;;;;;;2.33;1.35;;;19.30;99.90;;;;;;4922440;29;20191;-89
2023/07/31 12:11:06;;;;;;;3.33;1.83;;;19.40;99.90;;;;;;4890281;29;20191;-90
2023/07/31 12:13:33;;;;;;;2.08;1.50;;;19.40;99.90;;;;;;4917162;29;20230;-89
2023/07/31 12:16:02;;;;;;;5.50;2.40;;;19.40;99.90;;;;;;4932794;29;20202;-90
2023/07/31 12:18:30;;;;;;;3.78;1.77;;;19.50;99.90;;;;;;4932152;29;20553;-90
2023/07/31 12:21:02;;;;;;;2.65;1.73;;;19.50;99.90;;;;;;4920032;29;20294;-91
2023/07/31 12:23:32;;;;;;;3.05;1.70;;;19.60;99.90;;;;;;4924653;29;20183;-89
2023/07/31 12:26:12;;;;;;;3.05;1.80;;;19.60;99.90;;;;;;4913458;29;20194;-88
2023/07/31 12:28:47;;;;;;;2.50;1.60;;;19.60;99.90;;;;;;4937274;29;20187;-90
2023/07/31 12:31:19;;;;;;;3.88;1.55;;;19.60;99.90;;;;;;4922397;29;20180;-90
2023/07/31 12:33:47;;;;;;;18.98;13.65;;;19.70;99.90;;;;;;4923176;29;20176;-90
2023/07/31 12:36:15;;;;;;;4.90;2.28;;;19.70;99.90;;;;;;4931647;29;20327;-90
2023/07/31 12:38:44;;;;;;;3.72;1.88;;;19.70;99.90;;;;;;4930649;29;20633;-89
2023/07/31 12:41:14;;;;;;;3.13;2.10;;;19.70;99.90;;;;;;4923464;29;20179;-89
2023/07/31 12:43:41;;;;;;;4.07;2.03;;;19.80;99.90;;;;;;4937495;29;20191;-90
2023/07/31 12:46:08;;;;;;;3.67;1.70;;;19.80;99.90;;;;;;4937083;29;20183;-90
2023/07/31 12:48:35;;;;;;;3.42;1.92;;;19.80;99.90;;;;;;4921739;29;20660;-89
2023/07/31 12:51:01;;;;;;;2.75;1.80;;;19.80;99.90;;;;;;4905434;29;20224;-90
2023/07/31 12:53:28;;;;;;;2.95;1.80;;;19.80;99.90;;;;;;4932493;29;20188;-89